Time;durP1;ratioP1;P1;durP2;ratioP2;P2;SDS_P1;SDS_P2;PMS_P1;PMS_P2;Temp;Humidity;BMP_temperature;BMP_pressure;BME280_temperature;BME280_humidity;BME280_pressure;Samples;Min_cycle;Max_cycle;Signal;HPM_P1;HPM_P2
2021/09/05 00:02:20;;;;;;;40.40;15.55;;;12.10;97.90;;;;;;5001267;28;20022;-73
2021/09/05 00:04:45;;;;;;;38.95;15.55;;;12.10;97.90;;;;;;5007429;28;20037;-71
2021/09/05 00:07:11;;;;;;;36.67;15.05;;;12.10;97.80;;;;;;5002604;28;20073;-73
2021/09/05 00:09:37;;;;;;;42.78;15.40;;;12.10;97.80;;;;;;5005199;28;20117;-71
2021/09/05 00:12:04;;;;;;;45.05;16.50;;;12.10;97.80;;;;;;5000871;28;20026;-75
2021/09/05 00:14:30;;;;;;;37.67;15.80;;;12.10;97.90;;;;;;5001572;28;20026;-71
2021/09/05 00:16:56;;;;;;;41.30;16.02;;;12.10;97.90;;;;;;5001849;28;20037;-74
2021/09/05 00:19:21;;;;;;;41.83;15.38;;;12.10;97.90;;;;;;5004479;28;20022;-71
2021/09/05 00:21:47;;;;;;;43.08;15.18;;;12.00;97.90;;;;;;4997989;28;20125;-72
2021/09/05 00:24:12;;;;;;;39.83;16.15;;;12.10;97.90;;;;;;5003955;28;20161;-73
2021/09/05 00:26:38;;;;;;;42.67;16.25;;;12.10;97.90;;;;;;5001328;28;20017;-74
2021/09/05 00:29:04;;;;;;;40.53;16.95;;;12.00;97.90;;;;;;5008494;28;20119;-72
2021/09/05 00:31:29;;;;;;;39.78;16.30;;;12.00;97.90;;;;;;5004977;28;20018;-71
2021/09/05 00:34:00;;;;;;;36.53;15.40;;;12.00;98.00;;;;;;5000704;28;20083;-71
2021/09/05 00:36:26;;;;;;;;;;;12.00;97.90;;;;;;5005716;28;20481;-73
2021/09/05 00:38:52;;;;;;;35.88;14.90;;;12.00;98.00;;;;;;5006334;28;19905;-69
2021/09/05 00:41:18;;;;;;;37.35;16.00;;;12.00;97.90;;;;;;5009180;28;20061;-70
2021/09/05 00:43:57;;;;;;;38.40;15.93;;;12.00;98.00;;;;;;5006645;28;20113;-71
2021/09/05 00:46:22;;;;;;;39.60;16.25;;;12.00;97.90;;;;;;5006399;28;20064;-70
2021/09/05 00:48:48;;;;;;;46.72;16.08;;;11.90;97.80;;;;;;5003261;28;20053;-72
2021/09/05 00:51:14;;;;;;;34.55;14.73;;;11.90;97.90;;;;;;5005649;28;20149;-72
2021/09/05 00:53:40;;;;;;;40.50;15.85;;;11.80;97.90;;;;;;5004066;28;20576;-72
2021/09/05 00:56:05;;;;;;;38.17;16.05;;;11.80;98.10;;;;;;5008041;28;20433;-70
2021/09/05 00:58:31;;;;;;;36.15;16.08;;;11.90;98.10;;;;;;5011070;28;20048;-70
2021/09/05 01:00:58;;;;;;;38.13;16.13;;;11.80;97.90;;;;;;5000469;28;20023;-72
2021/09/05 01:03:24;;;;;;;36.65;16.25;;;11.90;98.10;;;;;;5003807;28;20025;-70
2021/09/05 01:05:49;;;;;;;49.60;15.90;;;11.90;98.10;;;;;;5003425;28;20083;-69
2021/09/05 01:08:15;;;;;;;38.70;16.48;;;11.80;98.00;;;;;;5006117;28;20040;-73
2021/09/05 01:10:41;;;;;;;41.30;15.25;;;11.70;98.00;;;;;;5008556;28;20022;-69
2021/09/05 01:13:06;;;;;;;42.85;15.75;;;11.80;98.10;;;;;;5002091;28;20034;-71
2021/09/05 01:15:32;;;;;;;37.45;16.20;;;11.80;98.10;;;;;;5007125;28;20022;-71
2021/09/05 01:17:58;;;;;;;39.28;16.05;;;11.70;98.00;;;;;;5005772;28;20536;-71
2021/09/05 01:20:23;;;;;;;39.47;15.85;;;11.70;98.10;;;;;;5008076;28;20030;-75
2021/09/05 01:22:51;;;;;;;42.88;16.58;;;11.80;98.20;;;;;;5001940;28;20104;-72
2021/09/05 01:25:16;;;;;;;41.88;16.08;;;11.80;98.20;;;;;;5006461;28;20078;-71
2021/09/05 01:27:42;;;;;;;38.55;15.68;;;11.70;98.10;;;;;;5008010;28;20030;-74
2021/09/05 01:30:09;;;;;;;37.30;15.50;;;11.70;98.20;;;;;;5010291;28;20490;-73
2021/09/05 01:32:34;;;;;;;39.50;15.45;;;11.60;98.10;;;;;;5013782;28;20108;-74
2021/09/05 01:35:02;;;;;;;39.95;15.13;;;11.60;98.10;;;;;;5005527;28;20145;-70
2021/09/05 01:37:28;;;;;;;40.42;14.77;;;11.60;98.10;;;;;;4983962;28;20034;-72
2021/09/05 01:39:54;;;;;;;37.13;14.80;;;11.50;98.10;;;;;;5008049;28;20084;-70
2021/09/05 01:42:19;;;;;;;37.55;14.43;;;11.50;98.10;;;;;;5000406;28;20037;-70
2021/09/05 01:44:45;;;;;;;36.70;14.68;;;11.40;98.10;;;;;;5007544;28;20040;-69
2021/09/05 01:47:10;;;;;;;40.90;15.73;;;11.40;98.20;;;;;;5004635;28;20449;-72
2021/09/05 01:49:36;;;;;;;37.75;14.38;;;11.50;98.30;;;;;;5010929;28;20121;-70
2021/09/05 01:52:02;;;;;;;39.65;15.48;;;11.40;98.30;;;;;;5003383;28;20052;-72
2021/09/05 01:54:27;;;;;;;41.85;15.55;;;11.40;98.40;;;;;;5004384;28;20026;-69
2021/09/05 01:56:53;;;;;;;38.92;15.45;;;11.40;98.40;;;;;;5006262;28;20109;-69
2021/09/05 01:59:18;;;;;;;32.15;13.77;;;11.40;98.30;;;;;;4994544;28;20594;-70
2021/09/05 02:01:44;;;;;;;37.58;15.98;;;11.30;98.20;;;;;;5004423;28;20028;-70
2021/09/05 02:04:09;;;;;;;44.90;15.68;;;11.30;98.30;;;;;;5007759;28;20030;-69
2021/09/05 02:06:35;;;;;;;42.45;14.93;;;11.30;98.40;;;;;;5006116;28;20025;-70
2021/09/05 02:09:01;;;;;;;38.60;15.07;;;11.30;98.40;;;;;;5002182;28;20029;-71
2021/09/05 02:11:26;;;;;;;34.70;14.95;;;11.40;98.40;;;;;;5002380;28;20389;-70
2021/09/05 02:13:52;;;;;;;40.28;15.98;;;11.30;98.30;;;;;;5003780;28;20030;-70
2021/09/05 02:16:18;;;;;;;36.45;14.95;;;11.30;98.40;;;;;;5006517;28;20038;-70
2021/09/05 02:18:45;;;;;;;41.38;15.88;;;11.20;98.40;;;;;;5004721;28;20033;-70
2021/09/05 02:21:10;;;;;;;48.40;15.95;;;11.30;98.50;;;;;;5002624;28;20030;-70
2021/09/05 02:23:36;;;;;;;37.75;14.98;;;11.20;98.30;;;;;;5003905;28;20113;-73
2021/09/05 02:26:02;;;;;;;40.28;14.77;;;11.20;98.50;;;;;;5004726;28;20034;-71
2021/09/05 02:28:27;;;;;;;43.97;14.40;;;11.20;98.40;;;;;;5005378;28;20095;-69
2021/09/05 02:30:53;;;;;;;41.00;15.68;;;11.20;98.40;;;;;;5002827;28;20496;-70
2021/09/05 02:33:19;;;;;;;40.75;14.43;;;11.10;98.40;;;;;;5005354;28;20204;-73
2021/09/05 02:35:45;;;;;;;42.88;14.13;;;11.10;98.40;;;;;;5012101;28;20026;-73
2021/09/05 02:38:11;;;;;;;37.55;15.00;;;11.10;98.40;;;;;;5013283;28;20033;-71
2021/09/05 02:40:37;;;;;;;40.75;14.50;;;11.00;98.40;;;;;;5017226;28;20026;-72
2021/09/05 02:43:02;;;;;;;34.10;14.80;;;11.10;98.60;;;;;;5003982;28;20042;-70
2021/09/05 02:45:28;;;;;;;39.35;14.45;;;11.00;98.50;;;;;;4999777;28;20089;-72
2021/09/05 02:47:54;;;;;;;44.28;15.20;;;11.00;98.50;;;;;;5004593;28;20036;-73
2021/09/05 02:50:19;;;;;;;37.15;13.85;;;11.00;98.50;;;;;;5004778;28;20397;-75
2021/09/05 02:52:45;;;;;;;35.88;14.88;;;11.00;98.60;;;;;;5005989;28;20025;-72
2021/09/05 02:55:10;;;;;;;44.38;15.27;;;10.90;98.50;;;;;;5004714;28;20405;-74
2021/09/05 02:57:36;;;;;;;41.72;14.68;;;10.90;98.60;;;;;;5003026;28;20034;-72
2021/09/05 03:00:03;;;;;;;43.85;14.65;;;10.80;98.60;;;;;;5004229;28;20061;-71
2021/09/05 03:02:28;;;;;;;47.47;14.35;;;10.80;98.60;;;;;;5004061;28;20033;-72
2021/09/05 03:04:54;;;;;;;35.85;13.93;;;10.80;98.50;;;;;;5002990;28;20409;-74
2021/09/05 03:07:20;;;;;;;35.33;14.07;;;10.70;98.50;;;;;;5000783;28;20017;-74
2021/09/05 03:09:45;;;;;;;37.90;12.80;;;10.60;98.50;;;;;;5003535;28;20028;-72
2021/09/05 03:12:11;;;;;;;29.17;13.15;;;10.60;98.50;;;;;;5007984;28;20026;-72
2021/09/05 03:14:36;;;;;;;35.70;13.07;;;10.50;98.40;;;;;;5001230;28;20030;-72
2021/09/05 03:17:02;;;;;;;35.60;13.10;;;10.50;98.40;;;;;;4999144;28;20103;-74
2021/09/05 03:19:28;;;;;;;36.17;13.07;;;10.50;98.40;;;;;;5001615;28;20065;-71
2021/09/05 03:21:53;;;;;;;31.95;13.20;;;10.40;98.30;;;;;;4998515;28;20026;-74
2021/09/05 03:24:19;;;;;;;32.38;13.30;;;10.30;98.30;;;;;;5005586;28;20034;-72
2021/09/05 03:26:44;;;;;;;33.45;13.00;;;10.20;98.20;;;;;;5003599;28;20562;-72
2021/09/05 03:29:10;;;;;;;35.65;13.48;;;10.20;98.20;;;;;;5003696;28;20072;-72
2021/09/05 03:31:36;;;;;;;43.35;13.88;;;10.20;98.30;;;;;;5002729;28;20091;-71
2021/09/05 03:34:01;;;;;;;32.53;12.73;;;10.10;98.20;;;;;;5004538;28;20040;-74
2021/09/05 03:36:27;;;;;;;40.33;13.63;;;10.10;98.10;;;;;;4999093;28;20034;-72
2021/09/05 03:38:53;;;;;;;44.80;15.52;;;10.10;98.20;;;;;;4993410;28;20516;-72
2021/09/05 03:41:18;;;;;;;45.30;15.60;;;10.20;98.40;;;;;;5002021;28;20728;-75
2021/09/05 03:43:44;;;;;;;35.20;13.82;;;10.20;98.40;;;;;;5004990;28;20026;-73
2021/09/05 03:46:09;;;;;;;37.67;12.77;;;10.10;98.30;;;;;;4998950;28;20936;-72
2021/09/05 03:48:35;;;;;;;38.20;13.90;;;10.20;98.50;;;;;;5003556;28;20026;-73
2021/09/05 03:51:01;;;;;;;37.63;13.57;;;10.10;98.40;;;;;;5004058;28;20102;-73
2021/09/05 03:53:26;;;;;;;38.38;14.52;;;10.10;98.30;;;;;;5003522;28;20112;-71
2021/09/05 03:55:53;;;;;;;34.97;13.35;;;10.00;98.50;;;;;;5005158;28;20080;-72
2021/09/05 03:58:19;;;;;;;37.33;13.15;;;10.00;98.40;;;;;;5001395;28;20034;-72
2021/09/05 04:00:44;;;;;;;39.05;14.05;;;10.10;98.60;;;;;;5004231;28;20022;-72
2021/09/05 04:03:11;;;;;;;38.30;14.00;;;10.00;98.40;;;;;;5009767;28;20088;-72
2021/09/05 04:05:36;;;;;;;34.15;13.45;;;9.90;98.50;;;;;;4998147;28;20103;-72
2021/09/05 04:10:35;;;;;;;33.58;12.90;;;9.80;98.40;;;;;;5004904;28;20503;-71
2021/09/05 04:13:01;;;;;;;41.55;13.68;;;9.80;98.40;;;;;;5006021;28;20042;-72
2021/09/05 04:15:27;;;;;;;39.75;13.07;;;9.80;98.40;;;;;;5009567;28;20021;-73
2021/09/05 04:17:54;;;;;;;35.53;13.25;;;9.70;98.40;;;;;;4998549;28;20022;-72
2021/09/05 04:20:19;;;;;;;36.20;13.82;;;9.70;98.40;;;;;;5009625;28;20037;-63
2021/09/05 04:22:45;;;;;;;34.60;13.93;;;9.70;98.50;;;;;;5005652;28;20025;-63
2021/09/05 04:25:12;;;;;;;33.20;12.60;;;9.70;98.50;;;;;;5007139;28;20042;-63
2021/09/05 04:27:39;;;;;;;30.67;12.90;;;9.60;98.30;;;;;;5011223;28;20029;-63
2021/09/05 04:30:06;;;;;;;34.65;12.52;;;9.60;98.30;;;;;;5000564;28;20036;-63
2021/09/05 04:32:33;;;;;;;36.60;13.35;;;9.60;98.40;;;;;;4999660;28;20023;-63
2021/09/05 04:35:00;;;;;;;37.63;13.02;;;9.60;98.30;;;;;;5007464;28;20493;-63
2021/09/05 04:37:26;;;;;;;35.28;13.00;;;9.50;98.20;;;;;;5004900;28;20026;-63
2021/09/05 04:39:51;;;;;;;41.35;13.20;;;9.40;98.10;;;;;;5009119;28;20036;-63
2021/09/05 04:42:17;;;;;;;42.33;13.98;;;9.40;98.20;;;;;;5006020;28;20026;-65
2021/09/05 04:44:43;;;;;;;34.72;12.82;;;9.30;98.10;;;;;;5010215;28;20455;-63
2021/09/05 04:47:08;;;;;;;34.45;12.07;;;9.30;98.10;;;;;;5014004;28;20022;-64
2021/09/05 04:49:34;;;;;;;35.05;12.43;;;9.20;98.00;;;;;;5007073;28;20029;-63
2021/09/05 04:52:00;;;;;;;35.28;12.50;;;9.20;98.00;;;;;;5006800;28;20034;-63
2021/09/05 04:54:26;;;;;;;36.28;12.88;;;9.30;98.00;;;;;;5002132;28;20042;-65
2021/09/05 04:56:52;;;;;;;31.48;12.35;;;9.20;98.10;;;;;;5002175;28;20250;-65
2021/09/05 04:59:18;;;;;;;29.60;11.85;;;9.20;98.00;;;;;;5001081;28;20030;-63
2021/09/05 05:01:43;;;;;;;39.95;13.38;;;9.10;98.00;;;;;;5008152;28;20026;-63
2021/09/05 05:04:09;;;;;;;39.47;12.75;;;9.20;98.10;;;;;;5008096;28;20058;-63
2021/09/05 05:06:38;;;;;;;44.58;13.75;;;9.30;98.40;;;;;;5004688;28;20432;-63
2021/09/05 05:09:03;;;;;;;33.95;12.15;;;9.30;98.20;;;;;;5002407;28;20018;-63
2021/09/05 05:11:29;;;;;;;37.80;13.27;;;9.30;98.20;;;;;;5012973;28;20105;-66
2021/09/05 05:13:55;;;;;;;35.83;13.43;;;9.20;98.20;;;;;;5007080;28;20092;-64
2021/09/05 05:16:22;;;;;;;41.05;12.77;;;9.20;98.10;;;;;;5007529;28;20057;-64
2021/09/05 05:18:48;;;;;;;34.22;13.45;;;9.20;98.10;;;;;;5002352;28;20018;-64
2021/09/05 05:21:14;;;;;;;39.75;12.98;;;9.20;98.10;;;;;;4998450;28;20030;-64
2021/09/05 05:23:39;;;;;;;38.72;12.32;;;9.30;98.20;;;;;;5004255;28;20575;-64
2021/09/05 05:26:05;;;;;;;34.47;13.00;;;9.30;98.10;;;;;;5006001;28;20052;-64
2021/09/05 05:28:31;;;;;;;38.75;12.90;;;9.40;98.10;;;;;;4999802;28;20026;-64
2021/09/05 05:30:57;;;;;;;32.42;12.82;;;9.40;98.10;;;;;;5003972;28;20025;-63
2021/09/05 05:33:22;;;;;;;34.40;12.38;;;9.50;98.20;;;;;;5004978;28;20025;-63
2021/09/05 05:35:48;;;;;;;35.88;13.50;;;9.60;98.40;;;;;;5004415;28;20026;-64
2021/09/05 05:38:13;;;;;;;42.22;13.57;;;9.60;98.40;;;;;;5002655;28;20022;-64
2021/09/05 05:40:39;;;;;;;42.53;13.77;;;9.80;98.60;;;;;;5007214;28;20074;-63
2021/09/05 05:43:05;;;;;;;36.58;13.45;;;9.80;98.60;;;;;;5003402;28;20397;-64
2021/09/05 05:45:30;;;;;;;34.60;12.75;;;9.90;98.60;;;;;;5001310;28;20033;-64
2021/09/05 05:47:56;;;;;;;37.13;13.80;;;10.00;98.60;;;;;;5004050;28;20026;-64
2021/09/05 05:50:22;;;;;;;34.15;13.70;;;10.10;98.80;;;;;;5002184;28;20065;-64
2021/09/05 05:52:47;;;;;;;35.40;12.48;;;10.20;98.80;;;;;;5005329;28;20080;-64
2021/09/05 05:55:13;;;;;;;28.35;12.43;;;10.30;98.80;;;;;;5003110;28;20025;-64
2021/09/05 05:57:39;;;;;;;35.83;13.55;;;10.40;98.80;;;;;;5001390;28;20034;-64
2021/09/05 06:00:06;;;;;;;36.10;13.73;;;10.50;98.80;;;;;;5006640;28;20081;-64
2021/09/05 06:02:32;;;;;;;37.78;13.70;;;10.60;98.80;;;;;;5004632;28;20033;-64
2021/09/05 06:04:58;;;;;;;35.40;13.15;;;10.70;98.80;;;;;;5002716;28;20720;-64
2021/09/05 06:07:25;;;;;;;35.47;14.27;;;10.80;98.70;;;;;;5003041;28;20109;-64
2021/09/05 06:09:51;;;;;;;31.58;12.73;;;10.90;98.70;;;;;;4988844;28;20018;-64
2021/09/05 06:12:17;;;;;;;35.80;14.45;;;11.00;98.60;;;;;;5004451;28;20468;-64
2021/09/05 06:14:42;;;;;;;35.45;13.02;;;11.10;98.40;;;;;;4994272;28;20034;-64
2021/09/05 06:17:08;;;;;;;27.23;12.38;;;11.10;98.30;;;;;;5003963;28;20525;-64
2021/09/05 06:19:33;;;;;;;27.73;12.05;;;11.30;98.20;;;;;;5000940;28;20026;-64
2021/09/05 06:21:59;;;;;;;32.38;13.20;;;11.40;98.00;;;;;;4996735;28;20244;-64
2021/09/05 06:24:24;;;;;;;26.25;11.38;;;11.40;97.80;;;;;;5003679;28;20034;-64
2021/09/05 06:26:50;;;;;;;28.27;11.25;;;11.50;97.80;;;;;;5003454;28;20103;-64
2021/09/05 06:29:16;;;;;;;25.05;11.07;;;11.60;97.60;;;;;;5002338;28;20026;-66
2021/09/05 06:31:41;;;;;;;24.17;11.18;;;11.60;97.30;;;;;;5003106;28;20021;-65
2021/09/05 06:34:07;;;;;;;23.38;10.07;;;11.70;97.30;;;;;;5005039;28;20041;-65
2021/09/05 06:36:33;;;;;;;22.50;10.48;;;11.80;97.10;;;;;;5001661;28;20030;-65
2021/09/05 06:38:58;;;;;;;20.15;9.80;;;11.90;97.00;;;;;;4996020;28;20030;-65
2021/09/05 06:41:24;;;;;;;18.38;9.40;;;12.00;96.90;;;;;;4998259;28;20515;-65
2021/09/05 06:43:49;;;;;;;26.20;9.05;;;12.00;96.80;;;;;;5001703;28;20040;-65
2021/09/05 06:46:15;;;;;;;19.05;8.27;;;12.00;96.40;;;;;;5004745;28;20025;-65
2021/09/05 06:48:42;;;;;;;16.35;7.63;;;12.10;96.30;;;;;;4998590;28;20034;-65
2021/09/05 06:51:09;;;;;;;18.65;7.30;;;12.10;96.10;;;;;;5007327;28;20036;-65
2021/09/05 06:53:34;;;;;;;19.83;7.75;;;12.10;96.00;;;;;;5001620;28;20025;-65
2021/09/05 06:56:00;;;;;;;16.05;6.63;;;12.20;96.00;;;;;;5002872;28;20041;-65
2021/09/05 06:58:26;;;;;;;13.38;6.28;;;12.10;95.70;;;;;;5000217;28;20029;-65
2021/09/05 07:00:52;;;;;;;13.02;6.00;;;12.10;95.50;;;;;;4998443;28;20046;-65
2021/09/05 07:03:17;;;;;;;15.23;5.50;;;12.20;95.30;;;;;;4999541;28;20087;-65
2021/09/05 07:05:43;;;;;;;11.32;5.18;;;12.20;95.30;;;;;;4994976;28;20089;-65
2021/09/05 07:08:09;;;;;;;10.20;4.90;;;12.20;95.30;;;;;;4995249;28;20392;-65
2021/09/05 07:10:35;;;;;;;10.02;4.82;;;12.30;95.00;;;;;;4997555;28;20819;-65
2021/09/05 07:13:01;;;;;;;11.10;4.63;;;12.30;94.30;;;;;;5001244;28;20412;-65
2021/09/05 07:15:27;;;;;;;11.00;5.10;;;12.50;94.40;;;;;;5002976;28;20021;-65
2021/09/05 07:17:52;;;;;;;8.25;4.40;;;12.50;94.80;;;;;;4994040;28;20021;-65
2021/09/05 07:20:18;;;;;;;10.63;3.72;;;12.50;94.70;;;;;;4997610;28;20103;-65
2021/09/05 07:22:43;;;;;;;10.73;4.90;;;12.60;94.20;;;;;;5002889;28;20022;-65
2021/09/05 07:25:09;;;;;;;10.13;3.75;;;12.60;93.70;;;;;;5003531;28;20374;-65
2021/09/05 07:27:35;;;;;;;8.82;3.97;;;12.60;93.60;;;;;;5011697;28;20072;-65
2021/09/05 07:30:01;;;;;;;8.77;4.25;;;12.60;93.30;;;;;;5001262;28;20030;-65
2021/09/05 07:32:27;;;;;;;11.48;4.25;;;12.60;93.20;;;;;;5003219;28;20355;-65
2021/09/05 07:34:52;;;;;;;11.00;4.13;;;12.70;93.90;;;;;;5013163;28;20505;-65
2021/09/05 07:37:18;;;;;;;10.00;4.00;;;12.70;93.80;;;;;;4997582;28;20033;-65
2021/09/05 07:39:44;;;;;;;7.18;4.30;;;12.70;93.20;;;;;;5000551;28;20041;-65
2021/09/05 07:42:09;;;;;;;7.97;3.70;;;12.80;93.50;;;;;;5003354;28;20026;-65
2021/09/05 07:44:35;;;;;;;7.05;3.90;;;12.80;93.40;;;;;;5004942;28;20053;-65
2021/09/05 07:47:00;;;;;;;8.15;3.92;;;12.80;92.70;;;;;;5003715;28;20037;-65
2021/09/05 07:49:27;;;;;;;8.32;3.58;;;13.00;92.20;;;;;;4996849;28;20017;-65
2021/09/05 07:51:53;;;;;;;7.25;3.50;;;13.10;92.40;;;;;;5002250;28;20025;-65
2021/09/05 07:54:19;;;;;;;6.50;3.38;;;13.20;92.40;;;;;;5002734;28;20129;-65
2021/09/05 07:56:45;;;;;;;8.63;3.80;;;13.30;91.40;;;;;;5004270;28;20049;-65
2021/09/05 07:59:11;;;;;;;7.00;3.47;;;13.50;91.70;;;;;;5000317;28;20034;-65
2021/09/05 08:01:36;;;;;;;6.22;3.67;;;13.80;91.70;;;;;;5002541;28;20117;-65
2021/09/05 08:04:02;;;;;;;6.72;3.63;;;13.90;90.10;;;;;;5000637;28;20037;-65
2021/09/05 08:06:27;;;;;;;5.88;3.67;;;14.10;90.70;;;;;;4997617;28;20034;-65
2021/09/05 08:08:55;;;;;;;9.52;3.67;;;14.20;89.80;;;;;;4997892;28;20125;-65
2021/09/05 08:11:22;;;;;;;6.90;3.55;;;14.20;89.00;;;;;;4976111;28;20374;-65
2021/09/05 08:13:47;;;;;;;8.05;3.85;;;14.50;89.80;;;;;;4958484;28;20038;-65
2021/09/05 08:16:13;;;;;;;8.30;3.92;;;14.70;89.70;;;;;;5006381;28;20088;-67
2021/09/05 08:18:39;;;;;;;6.00;3.45;;;14.80;89.00;;;;;;5001054;28;20064;-71
2021/09/05 08:21:06;;;;;;;7.95;3.97;;;15.00;88.10;;;;;;5000419;28;20035;-64
2021/09/05 08:23:32;;;;;;;6.55;2.90;;;15.00;87.20;;;;;;4999010;28;20040;-64
2021/09/05 08:25:58;;;;;;;7.18;3.53;;;15.20;86.40;;;;;;4994005;28;20136;-65
2021/09/05 08:28:24;;;;;;;5.45;3.13;;;15.50;87.50;;;;;;4996707;28;20026;-64
2021/09/05 08:30:49;;;;;;;5.15;2.75;;;15.50;84.80;;;;;;5002186;28;20021;-64
2021/09/05 08:33:17;;;;;;;5.72;3.20;;;15.70;85.30;;;;;;4997601;28;20025;-64
2021/09/05 08:35:43;;;;;;;5.63;2.92;;;15.90;85.30;;;;;;4996902;28;20030;-64
2021/09/05 08:38:09;;;;;;;6.20;2.70;;;16.00;85.10;;;;;;4986660;28;20033;-64
2021/09/05 08:40:40;;;;;;;8.50;3.20;;;16.20;82.00;;;;;;5003682;28;20040;-64
2021/09/05 08:43:10;;;;;;;6.10;2.90;;;16.30;80.60;;;;;;4999969;28;20018;-64
2021/09/05 08:45:37;;;;;;;6.60;3.10;;;16.30;79.90;;;;;;4991169;28;20037;-64
2021/09/05 08:48:04;;;;;;;6.40;2.65;;;16.30;81.70;;;;;;4994812;28;20057;-64
2021/09/05 08:50:31;;;;;;;7.20;2.75;;;16.30;79.60;;;;;;4999870;28;20030;-64
2021/09/05 08:52:57;;;;;;;5.25;2.42;;;16.60;80.50;;;;;;5002350;28;20505;-64
2021/09/05 08:55:24;;;;;;;7.32;3.25;;;16.80;80.10;;;;;;5003073;28;20583;-64
2021/09/05 08:57:50;;;;;;;7.95;2.75;;;16.70;79.90;;;;;;5003273;28;20032;-64
2021/09/05 09:00:15;;;;;;;6.72;3.42;;;17.00;80.20;;;;;;4994805;28;20392;-64
2021/09/05 09:02:48;;;;;;;6.75;3.08;;;17.20;78.20;;;;;;5002538;28;21317;-64
2021/09/05 09:05:15;;;;;;;6.43;2.80;;;17.40;79.00;;;;;;5004218;28;20117;-64
2021/09/05 09:07:48;;;;;;;6.78;3.03;;;17.30;79.20;;;;;;4994855;28;20109;-65
2021/09/05 09:10:15;;;;;;;8.60;3.00;;;17.50;77.90;;;;;;5001012;28;20022;-65
2021/09/05 09:12:43;;;;;;;6.95;3.30;;;17.70;76.80;;;;;;5015471;28;20044;-65
2021/09/05 09:15:28;;;;;;;4.18;2.33;;;18.00;75.20;;;;;;5001216;28;20030;-65
2021/09/05 09:18:04;;;;;;;7.65;2.63;;;17.90;73.60;;;;;;5004824;28;20026;-65
2021/09/05 09:20:37;;;;;;;5.32;2.67;;;18.00;77.00;;;;;;5004333;28;20034;-65
2021/09/05 09:23:19;;;;;;;5.22;2.97;;;18.00;76.30;;;;;;5003036;28;20504;-65
2021/09/05 09:26:04;;;;;;;9.70;2.95;;;18.40;75.20;;;;;;4997480;28;20096;-65
2021/09/05 09:28:30;;;;;;;4.05;2.67;;;18.50;73.60;;;;;;5002217;28;20026;-65
2021/09/05 09:30:58;;;;;;;5.97;2.83;;;18.60;75.40;;;;;;4999312;28;20048;-65
2021/09/05 09:33:25;;;;;;;6.63;3.08;;;18.60;72.60;;;;;;4997104;28;20037;-65
2021/09/05 09:35:53;;;;;;;8.52;3.20;;;18.80;71.50;;;;;;4997621;28;20847;-65
2021/09/05 09:38:20;;;;;;;4.95;2.72;;;18.90;73.50;;;;;;5007167;28;20108;-65
2021/09/05 09:40:47;;;;;;;8.05;3.40;;;19.00;71.10;;;;;;5002462;28;20060;-65
2021/09/05 09:43:22;;;;;;;5.43;2.50;;;18.80;72.00;;;;;;5002269;28;20033;-65
2021/09/05 09:45:51;;;;;;;5.85;2.83;;;19.00;69.30;;;;;;4995044;28;20026;-65
2021/09/05 09:48:24;;;;;;;6.57;2.88;;;19.30;72.40;;;;;;5004263;28;20033;-65
2021/09/05 09:50:57;;;;;;;4.68;2.55;;;19.30;71.80;;;;;;4993112;28;20035;-65
2021/09/05 09:53:23;;;;;;;4.65;2.47;;;19.00;68.50;;;;;;5004600;28;20031;-65
2021/09/05 09:55:49;;;;;;;5.45;3.25;;;19.50;70.90;;;;;;5013670;28;20031;-65
2021/09/05 09:58:14;;;;;;;4.97;2.88;;;19.60;68.90;;;;;;5002403;28;20025;-66
2021/09/05 10:00:41;;;;;;;5.50;3.03;;;19.60;68.70;;;;;;5000801;28;21692;-65
2021/09/05 10:03:08;;;;;;;8.00;3.13;;;19.70;70.50;;;;;;5003001;28;20125;-65
2021/09/05 10:05:34;;;;;;;6.68;3.20;;;20.00;67.50;;;;;;4990549;28;20014;-65
2021/09/05 10:08:01;;;;;;;6.70;2.88;;;20.00;68.50;;;;;;5001688;28;20084;-66
2021/09/05 10:10:27;;;;;;;4.47;2.70;;;20.00;69.90;;;;;;4999370;28;20030;-65
2021/09/05 10:12:55;;;;;;;5.68;3.10;;;20.20;67.20;;;;;;5003352;28;20037;-65
2021/09/05 10:15:21;;;;;;;5.00;2.60;;;20.10;63.80;;;;;;5006587;28;20523;-65
2021/09/05 10:17:47;;;;;;;5.50;3.00;;;20.20;67.40;;;;;;5003002;28;20092;-65
2021/09/05 10:20:16;;;;;;;8.00;3.20;;;20.30;65.30;;;;;;5003535;28;20087;-65
2021/09/05 10:22:42;;;;;;;7.38;3.03;;;20.20;65.50;;;;;;5001109;28;20018;-65
2021/09/05 10:25:08;;;;;;;6.03;2.92;;;20.20;67.80;;;;;;5005255;28;20029;-65
2021/09/05 10:27:39;;;;;;;6.75;2.75;;;20.20;66.60;;;;;;5006770;28;20529;-65
2021/09/05 10:30:08;;;;;;;7.65;3.17;;;20.40;67.90;;;;;;5004053;28;20038;-65
2021/09/05 10:32:48;;;;;;;6.22;3.00;;;20.40;64.50;;;;;;5002350;28;20023;-65
2021/09/05 10:35:50;;;;;;;5.53;2.70;;;20.70;66.30;;;;;;5007258;28;20036;-65
2021/09/05 10:38:21;;;;;;;6.28;3.00;;;21.00;65.70;;;;;;5003376;28;20025;-65
2021/09/05 10:40:46;;;;;;;8.18;3.40;;;21.20;64.20;;;;;;4998714;28;20026;-65
2021/09/05 10:43:13;;;;;;;7.28;3.20;;;21.20;64.70;;;;;;5003248;28;20142;-65
2021/09/05 10:45:42;;;;;;;8.75;3.22;;;21.30;65.10;;;;;;5007159;28;20045;-65
2021/09/05 10:48:33;;;;;;;6.05;2.78;;;21.40;62.40;;;;;;5005725;28;20103;-66
2021/09/05 10:51:07;;;;;;;6.00;2.85;;;21.70;62.70;;;;;;5005326;28;20037;-66
2021/09/05 10:53:54;;;;;;;7.05;2.72;;;21.50;59.10;;;;;;5001749;28;20503;-66
2021/09/05 10:56:23;;;;;;;8.07;3.40;;;21.40;58.50;;;;;;5004417;28;20018;-66
2021/09/05 10:58:57;;;;;;;5.57;2.78;;;21.60;61.30;;;;;;5001145;28;20026;-65
2021/09/05 11:01:32;;;;;;;9.43;3.15;;;21.70;56.80;;;;;;5000946;28;20037;-65
2021/09/05 11:04:15;;;;;;;6.53;2.75;;;21.60;58.30;;;;;;5010410;28;20336;-65
2021/09/05 11:06:44;;;;;;;6.85;3.10;;;22.00;57.30;;;;;;5003463;28;20112;-65
2021/09/05 11:09:22;;;;;;;6.25;2.80;;;21.70;59.30;;;;;;5006740;28;20072;-65
2021/09/05 11:12:11;;;;;;;4.93;2.45;;;22.00;57.80;;;;;;5001290;28;20021;-65
2021/09/05 11:14:37;;;;;;;5.07;2.55;;;21.50;56.20;;;;;;5001622;28;20037;-65
2021/09/05 11:17:09;;;;;;;5.15;2.58;;;22.10;61.50;;;;;;5003161;28;20045;-63
2021/09/05 11:19:42;;;;;;;3.70;2.60;;;22.40;56.30;;;;;;5003659;28;20042;-63
2021/09/05 11:22:12;;;;;;;5.53;2.65;;;22.50;57.30;;;;;;4998099;28;20036;-63
2021/09/05 11:24:39;;;;;;;6.30;2.78;;;22.50;54.60;;;;;;5000974;28;20032;-63
2021/09/05 11:27:06;;;;;;;6.07;2.78;;;22.60;53.00;;;;;;5003693;28;20124;-63
2021/09/05 11:29:33;;;;;;;4.60;2.50;;;22.90;53.90;;;;;;5003168;28;20057;-63
2021/09/05 11:32:19;;;;;;;5.00;2.10;;;22.70;50.10;;;;;;4983688;28;20034;-65
2021/09/05 11:34:53;;;;;;;6.28;2.33;;;22.50;53.10;;;;;;4997073;28;20025;-64
2021/09/05 11:37:33;;;;;;;5.32;2.58;;;22.50;52.50;;;;;;4996362;28;20075;-65
2021/09/05 11:40:07;;;;;;;4.68;2.80;;;23.20;55.80;;;;;;4999847;28;20026;-65
2021/09/05 11:42:34;;;;;;;5.20;2.72;;;23.20;55.50;;;;;;4998418;28;20057;-65
2021/09/05 11:45:06;;;;;;;6.40;2.38;;;23.40;52.90;;;;;;5008475;28;20083;-65
2021/09/05 11:47:32;;;;;;;5.68;2.70;;;23.50;55.80;;;;;;4999308;28;20455;-65
2021/09/05 11:50:03;;;;;;;4.28;2.40;;;23.70;52.90;;;;;;4998853;28;20031;-65
2021/09/05 11:52:36;;;;;;;5.63;2.45;;;24.00;50.30;;;;;;5002381;28;20022;-65
2021/09/05 11:55:10;;;;;;;5.53;2.95;;;24.10;51.10;;;;;;5003108;28;20034;-65
2021/09/05 11:57:56;;;;;;;4.10;2.70;;;24.20;49.60;;;;;;4997786;28;20397;-65
2021/09/05 12:00:39;;;;;;;5.55;2.60;;;24.30;50.90;;;;;;4996951;28;20036;-65
2021/09/05 12:03:06;;;;;;;5.53;2.60;;;23.80;50.20;;;;;;4996800;28;20522;-66
2021/09/05 12:05:33;;;;;;;5.97;2.50;;;24.60;53.70;;;;;;5002979;28;20114;-65
2021/09/05 12:07:59;;;;;;;5.45;2.88;;;24.70;48.20;;;;;;4995808;28;20018;-65
2021/09/05 12:10:27;;;;;;;3.25;2.20;;;24.50;48.80;;;;;;4997468;28;20030;-65
2021/09/05 12:13:02;;;;;;;4.30;2.28;;;24.90;52.70;;;;;;4992425;28;20094;-65
2021/09/05 12:15:54;;;;;;;3.63;2.33;;;25.10;49.90;;;;;;4999996;28;20049;-65
2021/09/05 12:18:19;;;;;;;8.35;2.30;;;24.70;48.70;;;;;;4992699;28;20043;-65
2021/09/05 12:20:51;;;;;;;6.18;2.25;;;24.80;50.40;;;;;;5000833;28;20026;-65
2021/09/05 12:23:30;;;;;;;3.83;2.15;;;25.50;47.80;;;;;;4998581;28;20033;-66
2021/09/05 12:26:02;;;;;;;4.60;2.20;;;25.50;47.50;;;;;;5001902;28;20018;-65
2021/09/05 12:28:29;;;;;;;3.70;2.50;;;25.00;45.30;;;;;;5002076;28;20060;-65
2021/09/05 12:30:57;;;;;;;4.53;2.30;;;25.60;48.20;;;;;;5002703;28;20029;-66
2021/09/05 12:33:26;;;;;;;5.53;2.28;;;26.00;47.30;;;;;;5000034;28;20025;-66
2021/09/05 12:35:54;;;;;;;5.47;2.65;;;25.90;45.10;;;;;;5005899;28;20681;-65
2021/09/05 12:38:30;;;;;;;4.63;2.30;;;26.00;43.90;;;;;;5001209;28;20026;-66
2021/09/05 12:41:10;;;;;;;4.82;2.30;;;26.40;44.70;;;;;;5000780;28;20125;-65
2021/09/05 12:43:47;;;;;;;4.57;2.40;;;26.60;46.10;;;;;;5006844;28;20105;-69